Time;durP1;ratioP1;P1;durP2;ratioP2;P2;SDS_P1;SDS_P2;PMS_P1;PMS_P2;Temp;Humidity;BMP_temperature;BMP_pressure;BME280_temperature;BME280_humidity;BME280_pressure;Samples;Min_cycle;Max_cycle;Signal;HPM_P1;HPM_P2
2022/06/29 00:00:22;;;;;;;150.48;137.95;;;19.30;69.60;;;;;;4995714;28;20506;-77
2022/06/29 00:02:49;;;;;;;151.40;138.70;;;19.30;69.50;;;;;;4996631;28;20042;-76
2022/06/29 00:05:21;;;;;;;153.73;140.77;;;19.20;69.70;;;;;;5014132;28;20133;-77
2022/06/29 00:07:48;;;;;;;152.60;139.88;;;19.20;69.80;;;;;;4996345;28;20050;-77
2022/06/29 00:10:16;;;;;;;154.18;140.80;;;19.10;69.80;;;;;;5013475;28;20125;-77
2022/06/29 00:12:44;;;;;;;152.55;139.45;;;19.10;70.10;;;;;;4996769;28;20061;-76
2022/06/29 00:15:12;;;;;;;152.23;139.50;;;19.10;70.30;;;;;;5014344;28;20074;-76
2022/06/29 00:17:39;;;;;;;151.70;138.90;;;19.00;70.40;;;;;;5013840;28;20061;-76
2022/06/29 00:20:10;;;;;;;153.60;140.77;;;19.00;70.60;;;;;;5013822;28;20427;-77
2022/06/29 00:22:38;;;;;;;152.60;139.70;;;19.00;71.10;;;;;;5013845;28;20105;-76
2022/06/29 00:25:06;;;;;;;152.35;139.65;;;18.90;71.50;;;;;;5012534;28;20054;-77
2022/06/29 00:27:34;;;;;;;154.32;141.48;;;18.90;71.90;;;;;;4996117;28;20065;-77
2022/06/29 00:30:01;;;;;;;155.50;142.45;;;18.80;72.20;;;;;;4979831;28;20460;-77
2022/06/29 00:32:28;;;;;;;151.32;138.55;;;18.80;72.30;;;;;;5012634;28;20065;-76
2022/06/29 00:34:55;;;;;;;153.25;140.65;;;18.70;72.60;;;;;;4996050;28;20050;-77
2022/06/29 00:37:22;;;;;;;153.95;141.15;;;18.70;72.70;;;;;;5013782;28;20949;-76
2022/06/29 00:39:50;;;;;;;153.50;140.52;;;18.70;72.80;;;;;;4995973;28;20134;-76
2022/06/29 00:42:17;;;;;;;154.02;141.27;;;18.60;73.00;;;;;;5012401;28;20148;-76
2022/06/29 00:44:44;;;;;;;152.27;139.60;;;18.60;73.50;;;;;;5013431;28;20086;-76
2022/06/29 00:47:11;;;;;;;154.57;141.85;;;18.60;74.10;;;;;;5013589;28;20055;-76
2022/06/29 00:49:38;;;;;;;155.43;142.32;;;18.50;74.30;;;;;;4995844;28;20042;-77
2022/06/29 00:52:08;;;;;;;152.35;139.45;;;18.40;74.50;;;;;;4995989;28;20290;-77
2022/06/29 00:54:38;;;;;;;150.18;137.57;;;18.40;74.90;;;;;;4995362;28;20057;-76
2022/06/29 00:57:10;;;;;;;153.32;140.50;;;18.40;74.90;;;;;;5011584;28;20050;-77
2022/06/29 00:59:44;;;;;;;150.52;137.93;;;18.40;75.10;;;;;;5013731;28;20587;-78
2022/06/29 01:02:12;;;;;;;151.70;139.10;;;18.30;75.40;;;;;;4996246;28;20112;-77
2022/06/29 01:04:39;;;;;;;157.10;144.07;;;18.30;75.60;;;;;;4994637;28;20105;-77
2022/06/29 01:07:06;;;;;;;150.55;137.85;;;18.30;75.70;;;;;;4976064;28;20121;-77
2022/06/29 01:09:34;;;;;;;153.00;139.68;;;18.30;75.90;;;;;;4959828;28;20059;-77
2022/06/29 01:12:01;;;;;;;152.57;139.20;;;18.20;76.10;;;;;;4976217;28;20137;-77
2022/06/29 01:14:30;;;;;;;148.30;135.40;;;18.10;76.40;;;;;;4976390;28;20101;-77
2022/06/29 01:16:57;;;;;;;146.80;134.10;;;18.00;76.90;;;;;;4993543;28;20054;-77
2022/06/29 01:19:24;;;;;;;150.02;137.13;;;18.00;77.50;;;;;;4975760;28;20043;-77
2022/06/29 01:21:52;;;;;;;150.05;137.15;;;17.90;78.00;;;;;;4976346;28;20046;-77
2022/06/29 01:24:22;;;;;;;150.77;137.75;;;17.90;78.70;;;;;;4993849;28;20517;-77
2022/06/29 01:26:49;;;;;;;155.27;142.00;;;17.90;78.50;;;;;;4993548;28;20100;-77
2022/06/29 01:29:16;;;;;;;153.50;139.93;;;17.80;78.60;;;;;;4991921;28;20129;-77
2022/06/29 01:31:44;;;;;;;155.07;141.77;;;17.80;78.90;;;;;;4976144;28;20637;-77
2022/06/29 01:34:11;;;;;;;152.27;138.88;;;17.80;79.20;;;;;;4993237;28;20058;-77
2022/06/29 01:36:38;;;;;;;151.23;138.20;;;17.70;79.20;;;;;;4976537;28;20511;-77
2022/06/29 01:39:05;;;;;;;148.40;135.60;;;17.70;79.30;;;;;;4998999;28;20137;-77
2022/06/29 01:41:33;;;;;;;147.07;134.07;;;17.70;79.80;;;;;;5079465;22;20049;-77
2022/06/29 01:44:00;;;;;;;148.13;135.02;;;17.60;80.10;;;;;;5030920;28;20116;-77
2022/06/29 01:46:27;;;;;;;145.90;132.98;;;17.60;80.70;;;;;;5032897;28;20064;-77
2022/06/29 01:48:53;;;;;;;147.10;133.75;;;17.50;81.20;;;;;;5031097;28;20042;-76
2022/06/29 01:51:20;;;;;;;147.10;134.00;;;17.50;82.10;;;;;;5031599;28;20104;-77
2022/06/29 01:53:47;;;;;;;146.55;133.32;;;17.50;82.60;;;;;;5031539;28;20137;-77
2022/06/29 01:56:14;;;;;;;146.27;133.13;;;17.40;83.00;;;;;;5032138;28;20050;-77
2022/06/29 01:58:43;;;;;;;146.50;133.30;;;17.40;83.60;;;;;;5030888;28;20046;-77
2022/06/29 02:01:10;;;;;;;146.90;133.80;;;17.30;84.00;;;;;;5032572;28;20062;-77
2022/06/29 02:03:37;;;;;;;144.35;131.55;;;17.30;84.60;;;;;;5032818;28;20061;-77
2022/06/29 02:06:04;;;;;;;146.75;133.85;;;17.30;84.90;;;;;;5034984;28;20053;-77
2022/06/29 02:08:31;;;;;;;146.10;133.18;;;17.20;85.50;;;;;;5034409;28;20056;-77
2022/06/29 02:10:58;;;;;;;147.55;134.18;;;17.10;86.20;;;;;;5034782;28;20061;-77
2022/06/29 02:13:25;;;;;;;144.93;131.77;;;17.20;86.80;;;;;;5031742;28;20566;-77
2022/06/29 02:15:54;;;;;;;144.80;131.70;;;17.10;87.10;;;;;;5054278;28;20049;-77
2022/06/29 02:18:21;;;;;;;148.20;135.05;;;17.10;87.40;;;;;;5053858;28;20137;-77
2022/06/29 02:20:48;;;;;;;145.90;132.70;;;17.10;87.60;;;;;;5054327;28;20066;-77
2022/06/29 02:23:15;;;;;;;146.10;132.70;;;17.10;87.80;;;;;;5037841;28;20037;-77
2022/06/29 02:25:42;;;;;;;147.98;134.65;;;17.20;88.10;;;;;;5054500;28;20416;-77
2022/06/29 02:28:09;;;;;;;148.65;134.82;;;17.10;88.80;;;;;;5053947;28;20057;-76
2022/06/29 02:36:06;;;;;;;146.10;132.65;;;17.10;89.00;;;;;;5055659;28;20046;-76
2022/06/29 02:38:33;;;;;;;148.95;135.43;;;17.10;89.10;;;;;;5053722;28;20056;-77
2022/06/29 02:40:59;;;;;;;147.45;133.68;;;17.10;89.50;;;;;;5054539;28;20091;-77
2022/06/29 02:43:26;;;;;;;148.68;135.00;;;17.10;89.60;;;;;;5054242;28;20091;-76
2022/06/29 02:45:54;;;;;;;151.65;137.75;;;17.20;89.90;;;;;;5052780;28;20144;-77
2022/06/29 02:48:22;;;;;;;147.73;134.30;;;17.10;90.00;;;;;;5053302;28;20045;-78
2022/06/29 02:50:49;;;;;;;148.90;135.20;;;17.10;90.20;;;;;;5053662;28;20077;-77
2022/06/29 02:53:16;;;;;;;146.57;133.25;;;17.10;90.20;;;;;;5054952;28;20058;-77
2022/06/29 02:55:43;;;;;;;149.05;135.38;;;17.10;90.30;;;;;;5053906;28;20164;-77
2022/06/29 02:58:09;;;;;;;146.02;132.73;;;17.10;90.30;;;;;;5053448;28;20136;-77
2022/06/29 03:00:37;;;;;;;144.55;131.38;;;17.00;90.30;;;;;;5055169;28;20073;-77
2022/06/29 03:03:04;;;;;;;147.25;133.75;;;17.00;90.50;;;;;;5053600;28;20555;-77
2022/06/29 03:05:32;;;;;;;145.27;131.63;;;17.00;90.50;;;;;;5054772;28;20498;-77
2022/06/29 03:07:59;;;;;;;145.02;131.82;;;17.00;90.60;;;;;;5054655;28;20045;-77
2022/06/29 03:10:26;;;;;;;142.02;129.23;;;17.00;90.70;;;;;;5053142;28;20137;-76
2022/06/29 03:12:53;;;;;;;150.85;137.07;;;16.90;90.60;;;;;;5036861;28;20046;-77
2022/06/29 03:15:39;;;;;;;147.43;134.05;;;16.90;90.60;;;;;;5053073;28;20073;-77
2022/06/29 03:18:31;;;;;;;149.02;135.20;;;16.90;90.80;;;;;;5050387;28;20141;-77
2022/06/29 03:21:09;;;;;;;148.45;134.95;;;16.80;90.80;;;;;;5033168;28;20088;-77
2022/06/29 03:23:36;;;;;;;149.65;136.05;;;16.80;90.80;;;;;;5053077;28;20057;-77
2022/06/29 03:26:07;;;;;;;148.80;135.30;;;16.80;90.90;;;;;;5051248;28;20049;-76
2022/06/29 03:28:44;;;;;;;150.88;136.85;;;16.80;90.80;;;;;;5051595;28;20058;-77
2022/06/29 03:31:11;;;;;;;150.50;136.60;;;16.80;90.80;;;;;;5051999;28;20048;-77
2022/06/29 03:33:38;;;;;;;150.27;136.38;;;16.80;90.80;;;;;;5053982;28;20224;-76
2022/06/29 03:36:08;;;;;;;150.25;136.52;;;16.80;90.90;;;;;;5054085;28;20115;-77
2022/06/29 03:38:35;;;;;;;149.93;135.98;;;16.80;90.90;;;;;;5052799;28;20775;-77
2022/06/29 03:41:02;;;;;;;148.27;134.27;;;16.80;90.90;;;;;;5052379;28;20140;-77
2022/06/29 03:43:29;;;;;;;150.73;137.13;;;16.80;90.90;;;;;;5053297;28;20586;-78
2022/06/29 03:45:56;;;;;;;148.93;135.43;;;16.80;90.90;;;;;;5052517;28;20045;-77
2022/06/29 03:48:23;;;;;;;148.95;135.25;;;16.70;90.90;;;;;;5052867;28;20128;-77
2022/06/29 03:50:50;;;;;;;150.27;136.32;;;16.80;91.00;;;;;;5052813;28;20147;-77
2022/06/29 03:53:19;;;;;;;154.80;140.18;;;16.80;91.00;;;;;;5052790;28;20053;-77
2022/06/29 03:55:45;;;;;;;151.13;137.25;;;16.80;91.00;;;;;;5053021;28;20128;-77
2022/06/29 03:58:13;;;;;;;151.45;137.50;;;16.80;90.90;;;;;;5048028;28;20178;-77
2022/06/29 04:00:40;;;;;;;149.85;135.63;;;16.80;90.90;;;;;;5032826;28;20081;-77
2022/06/29 04:03:06;;;;;;;149.23;135.32;;;16.70;90.90;;;;;;5032742;28;20050;-76
2022/06/29 04:05:33;;;;;;;147.07;132.98;;;16.70;91.10;;;;;;5033337;28;20149;-77
2022/06/29 04:08:00;;;;;;;148.45;134.45;;;16.60;91.20;;;;;;5032333;28;20130;-77
2022/06/29 04:10:28;;;;;;;143.93;130.15;;;16.60;91.30;;;;;;5033473;28;20060;-77
2022/06/29 04:13:23;;;;;;;148.73;134.60;;;16.60;91.40;;;;;;5036408;28;20081;-77
2022/06/29 04:15:50;;;;;;;149.95;136.05;;;16.60;91.60;;;;;;5031493;28;20054;-77
2022/06/29 04:18:17;;;;;;;152.15;137.90;;;16.50;91.70;;;;;;5033907;28;20471;-77
2022/06/29 04:23:29;;;;;;;151.10;137.00;;;16.50;91.90;;;;;;5032848;28;20586;-77
2022/06/29 04:25:57;;;;;;;154.93;140.43;;;16.50;92.00;;;;;;5032665;28;20042;-77
2022/06/29 04:28:24;;;;;;;152.60;138.38;;;16.40;92.10;;;;;;5031900;28;20705;-77
2022/06/29 04:30:51;;;;;;;153.43;138.98;;;16.40;92.30;;;;;;5035389;28;20535;-77
2022/06/29 04:33:18;;;;;;;153.50;139.27;;;16.40;92.50;;;;;;5032191;28;20131;-77
2022/06/29 04:35:44;;;;;;;152.05;137.00;;;16.40;92.70;;;;;;5033498;28;20140;-77
2022/06/29 04:38:11;;;;;;;152.70;138.48;;;16.40;92.70;;;;;;5031690;28;20607;-77
2022/06/29 04:40:38;;;;;;;147.90;133.85;;;16.30;92.80;;;;;;5033226;28;20146;-77
2022/06/29 04:43:06;;;;;;;152.32;138.43;;;16.30;92.90;;;;;;5032257;28;20045;-77
2022/06/29 04:48:18;;;;;;;153.82;139.73;;;16.40;92.90;;;;;;5032192;28;20524;-78
2022/06/29 04:50:45;;;;;;;151.02;137.23;;;16.40;92.90;;;;;;5032595;28;20111;-78
2022/06/29 04:53:12;;;;;;;154.38;140.30;;;16.40;93.00;;;;;;5033023;28;20161;-77
2022/06/29 04:55:39;;;;;;;154.23;139.63;;;16.50;93.10;;;;;;5015165;28;20125;-77
2022/06/29 04:58:07;;;;;;;153.80;139.82;;;16.50;93.30;;;;;;5033282;28;20058;-77
2022/06/29 05:00:34;;;;;;;153.00;138.93;;;16.40;93.40;;;;;;5034005;28;20049;-77
2022/06/29 05:03:01;;;;;;;150.43;136.25;;;16.50;93.50;;;;;;5031882;28;20056;-77
2022/06/29 05:05:28;;;;;;;148.15;134.25;;;16.50;93.50;;;;;;5028722;28;20057;-77
2022/06/29 05:07:54;;;;;;;150.60;136.50;;;16.50;93.50;;;;;;5028531;28;20050;-79
2022/06/29 05:10:21;;;;;;;150.98;136.95;;;16.50;93.60;;;;;;5011743;28;20050;-77
2022/06/29 05:12:48;;;;;;;149.68;135.57;;;16.60;93.70;;;;;;5026691;28;20508;-77
2022/06/29 05:15:16;;;;;;;151.02;136.82;;;16.60;93.70;;;;;;5030587;28;20916;-78
2022/06/29 05:17:45;;;;;;;151.23;137.57;;;16.60;93.80;;;;;;5014851;28;20633;-77
2022/06/29 05:20:12;;;;;;;152.43;138.45;;;16.70;93.90;;;;;;5030581;28;20133;-77
2022/06/29 05:22:39;;;;;;;155.32;140.85;;;16.70;93.90;;;;;;5030633;28;20050;-77
2022/06/29 05:25:08;;;;;;;157.98;143.38;;;16.70;93.90;;;;;;5020466;28;20056;-77
2022/06/29 05:27:35;;;;;;;154.13;139.82;;;16.80;94.00;;;;;;5025120;28;20551;-77
2022/06/29 05:30:02;;;;;;;154.50;140.15;;;16.80;94.00;;;;;;5030297;28;20057;-77
2022/06/29 05:32:30;;;;;;;158.10;143.50;;;16.80;94.00;;;;;;5021233;28;20065;-77
2022/06/29 05:34:58;;;;;;;154.15;139.95;;;16.80;93.90;;;;;;5019863;28;20125;-77
2022/06/29 05:37:25;;;;;;;149.15;134.95;;;16.90;93.90;;;;;;5012494;28;20535;-80
2022/06/29 05:39:52;;;;;;;146.00;132.13;;;16.90;94.00;;;;;;5029668;28;20054;-81
2022/06/29 05:42:19;;;;;;;148.27;134.75;;;17.00;94.30;;;;;;5032295;28;20908;-79
2022/06/29 05:44:46;;;;;;;147.45;133.95;;;17.00;94.20;;;;;;5033829;28;20049;-82
2022/06/29 05:47:14;;;;;;;152.00;137.80;;;17.00;94.20;;;;;;5032146;28;20520;-82
2022/06/29 05:49:42;;;;;;;150.23;136.35;;;17.10;94.20;;;;;;5039598;28;20048;-79
2022/06/29 05:52:09;;;;;;;149.13;135.20;;;17.10;94.30;;;;;;5078952;22;20178;-78
2022/06/29 05:54:36;;;;;;;148.48;134.77;;;17.20;94.30;;;;;;5055762;28;20056;-75
2022/06/29 05:57:05;;;;;;;147.55;133.95;;;17.20;94.10;;;;;;5055878;28;20057;-83
2022/06/29 05:59:32;;;;;;;143.73;130.00;;;17.30;94.00;;;;;;5057092;28;20049;-82
2022/06/29 06:01:59;;;;;;;147.85;134.18;;;17.30;93.90;;;;;;5040548;28;20087;-84
2022/06/29 06:04:27;;;;;;;144.68;131.30;;;17.40;93.80;;;;;;5040539;28;20045;-84
2022/06/29 06:06:55;;;;;;;151.05;136.85;;;17.40;93.70;;;;;;5056526;28;20107;-86
2022/06/29 06:09:26;;;;;;;150.55;136.27;;;17.50;93.80;;;;;;5040122;28;20053;-77
2022/06/29 06:11:54;;;;;;;147.23;132.98;;;17.50;93.90;;;;;;5040305;28;20148;-81
2022/06/29 06:14:20;;;;;;;147.45;133.88;;;17.60;93.90;;;;;;5056515;28;20045;-78
2022/06/29 06:16:47;;;;;;;149.15;135.88;;;17.60;93.80;;;;;;5037343;28;20124;-86
2022/06/29 06:19:14;;;;;;;152.35;138.75;;;17.60;93.70;;;;;;5036760;28;20088;-79
2022/06/29 06:21:41;;;;;;;152.73;139.13;;;17.70;93.70;;;;;;5055077;28;20139;-81
2022/06/29 06:24:10;;;;;;;151.02;137.52;;;17.70;93.70;;;;;;5020835;28;20059;-77
2022/06/29 06:26:37;;;;;;;151.63;137.77;;;17.80;93.70;;;;;;5037056;28;20050;-84
2022/06/29 06:29:04;;;;;;;150.73;137.02;;;17.80;93.70;;;;;;5054547;28;20104;-81
2022/06/29 06:31:31;;;;;;;148.15;134.85;;;17.90;93.80;;;;;;5036921;28;20058;-80
2022/06/29 06:33:58;;;;;;;145.48;130.73;;;17.90;93.90;;;;;;5020311;28;20045;-79
2022/06/29 06:36:25;;;;;;;148.25;134.75;;;17.90;93.80;;;;;;5036544;28;20135;-80
2022/06/29 06:38:52;;;;;;;150.75;137.00;;;18.00;93.90;;;;;;5034909;28;20054;-81
2022/06/29 06:41:22;;;;;;;150.52;136.52;;;18.10;94.10;;;;;;5035764;28;20057;-79
2022/06/29 06:43:49;;;;;;;159.50;138.80;;;18.10;94.00;;;;;;5036224;28;20050;-78
2022/06/29 06:46:16;;;;;;;149.90;136.70;;;18.20;94.00;;;;;;5055877;28;20053;-77
2022/06/29 06:48:43;;;;;;;149.13;136.00;;;18.30;93.70;;;;;;5068346;28;20049;-80
2022/06/29 06:51:11;;;;;;;148.85;135.57;;;18.40;93.70;;;;;;5048593;28;20143;-77
2022/06/29 06:53:38;;;;;;;154.13;138.00;;;18.40;93.60;;;;;;5071503;28;20053;-78
2022/06/29 06:56:06;;;;;;;157.35;143.45;;;18.50;93.50;;;;;;5050588;28;20049;-79
2022/06/29 06:58:35;;;;;;;156.00;142.48;;;18.60;93.20;;;;;;5055318;28;20138;-77
2022/06/29 07:01:04;;;;;;;161.80;147.77;;;18.60;93.00;;;;;;5066666;28;20092;-77
2022/06/29 07:03:32;;;;;;;159.88;145.77;;;18.70;92.80;;;;;;5033335;28;20056;-79
2022/06/29 07:06:00;;;;;;;162.98;148.27;;;18.70;92.70;;;;;;5055448;28;20076;-90
2022/06/29 07:08:29;;;;;;;160.75;146.25;;;18.80;92.80;;;;;;5037579;28;20053;-78
2022/06/29 07:10:56;;;;;;;158.10;144.43;;;18.90;92.70;;;;;;5039273;28;20060;-79
2022/06/29 07:13:23;;;;;;;159.65;145.75;;;19.00;92.70;;;;;;5055210;28;20140;-76
2022/06/29 07:15:51;;;;;;;161.40;147.30;;;19.00;92.50;;;;;;5060530;28;20053;-77
2022/06/29 07:18:18;;;;;;;163.27;149.07;;;19.10;92.10;;;;;;5035235;28;20060;-73
2022/06/29 07:20:45;;;;;;;167.77;153.30;;;19.20;92.20;;;;;;5052846;28;20054;-78
2022/06/29 07:23:12;;;;;;;171.93;157.32;;;19.30;92.50;;;;;;5035760;28;20046;-84
2022/06/29 07:25:39;;;;;;;164.88;150.77;;;19.30;92.30;;;;;;5034620;28;20141;-77
2022/06/29 07:28:06;;;;;;;164.77;150.55;;;19.40;92.00;;;;;;5052566;28;20538;-77
2022/06/29 07:30:33;;;;;;;165.82;151.43;;;19.50;92.00;;;;;;5057909;28;20133;-78
2022/06/29 07:33:03;;;;;;;162.27;148.38;;;19.60;91.90;;;;;;5054189;28;20198;-86
2022/06/29 07:35:30;;;;;;;164.52;150.68;;;19.60;91.80;;;;;;5055729;28;20049;-76
2022/06/29 07:37:57;;;;;;;164.52;150.85;;;19.70;91.70;;;;;;5055123;28;20466;-85
2022/06/29 07:40:24;;;;;;;162.13;148.40;;;19.80;91.60;;;;;;5055757;28;20140;-77
2022/06/29 07:42:50;;;;;;;158.75;145.43;;;19.80;91.40;;;;;;5055699;28;20141;-79
2022/06/29 07:45:17;;;;;;;172.10;158.05;;;19.90;91.30;;;;;;5040350;28;20057;-81
2022/06/29 07:47:45;;;;;;;164.30;150.68;;;19.90;91.20;;;;;;5047170;28;21009;-84
2022/06/29 07:50:13;;;;;;;160.93;147.40;;;20.00;91.40;;;;;;5038770;28;20057;-76
2022/06/29 07:52:42;;;;;;;166.45;152.73;;;20.10;91.30;;;;;;5055096;28;20450;-74
2022/06/29 07:55:09;;;;;;;170.45;156.32;;;20.20;91.30;;;;;;5054420;28;20053;-79
2022/06/29 07:57:37;;;;;;;177.95;163.32;;;20.30;91.40;;;;;;5047548;28;20095;-80
2022/06/29 08:00:05;;;;;;;171.20;157.45;;;20.40;91.50;;;;;;5053393;28;20111;-78
2022/06/29 08:02:39;;;;;;;165.95;152.23;;;20.50;91.30;;;;;;5049377;28;20068;-74
2022/06/29 08:05:06;;;;;;;168.13;154.15;;;20.60;90.70;;;;;;5072218;28;20131;-76
2022/06/29 08:07:34;;;;;;;169.43;155.23;;;20.70;90.70;;;;;;5070640;28;20056;-76
2022/06/29 08:10:02;;;;;;;173.55;159.65;;;20.80;90.50;;;;;;5053386;28;20065;-76
2022/06/29 08:12:29;;;;;;;168.82;154.80;;;20.90;90.40;;;;;;5053501;28;20095;-75
2022/06/29 08:14:56;;;;;;;162.32;148.80;;;21.00;90.30;;;;;;5035881;28;20545;-82
2022/06/29 08:17:22;;;;;;;166.50;152.88;;;21.10;90.30;;;;;;5053799;28;20113;-78
2022/06/29 08:19:50;;;;;;;166.88;153.18;;;21.10;90.20;;;;;;5071308;28;20146;-74
2022/06/29 08:22:17;;;;;;;168.23;154.63;;;21.20;90.10;;;;;;5037528;28;20037;-74
2022/06/29 08:24:45;;;;;;;169.82;155.93;;;21.30;89.50;;;;;;5053238;28;20462;-77
2022/06/29 08:27:12;;;;;;;169.27;155.68;;;21.40;90.10;;;;;;5068625;28;20474;-75
2022/06/29 08:29:39;;;;;;;167.32;153.93;;;21.50;89.60;;;;;;5052329;28;20136;-76
2022/06/29 08:32:06;;;;;;;173.23;159.77;;;21.60;89.10;;;;;;5053179;28;20525;-75
2022/06/29 08:34:34;;;;;;;173.48;159.88;;;21.70;89.40;;;;;;5051304;28;20130;-77
2022/06/29 08:37:01;;;;;;;172.20;158.35;;;21.80;89.20;;;;;;5071804;28;20434;-77
2022/06/29 08:39:28;;;;;;;168.60;155.30;;;21.90;88.60;;;;;;5051783;28;20075;-77
2022/06/29 08:42:02;;;;;;;175.05;160.15;;;21.90;87.70;;;;;;5068904;28;20164;-76
2022/06/29 08:44:32;;;;;;;172.68;158.93;;;22.00;87.20;;;;;;5035477;28;20455;-78
2022/06/29 08:47:01;;;;;;;178.23;164.05;;;22.10;86.80;;;;;;5071987;28;20059;-77
2022/06/29 08:49:28;;;;;;;172.00;158.25;;;22.20;86.00;;;;;;5071688;28;20077;-77
2022/06/29 08:51:56;;;;;;;169.43;155.88;;;22.20;85.30;;;;;;5069182;28;20499;-76
2022/06/29 08:54:24;;;;;;;168.52;155.30;;;22.30;83.60;;;;;;5049868;28;20049;-76
2022/06/29 08:56:52;;;;;;;173.35;159.75;;;22.30;82.80;;;;;;5045696;28;20048;-76
2022/06/29 08:59:22;;;;;;;173.15;159.55;;;22.40;81.10;;;;;;5069069;28;20056;-78
2022/06/29 09:01:49;;;;;;;170.80;157.13;;;22.40;80.60;;;;;;5053430;28;20060;-77
2022/06/29 09:04:16;;;;;;;172.07;158.18;;;22.40;79.50;;;;;;5053041;28;20049;-76
2022/06/29 09:06:43;;;;;;;169.63;156.32;;;22.50;80.00;;;;;;5051190;28;20063;-77
2022/06/29 09:09:10;;;;;;;161.50;148.63;;;22.50;79.70;;;;;;5051334;28;20049;-76
2022/06/29 09:11:42;;;;;;;166.32;153.63;;;22.60;79.60;;;;;;5067546;28;20107;-75
2022/06/29 09:14:13;;;;;;;174.32;160.80;;;22.60;78.80;;;;;;5068651;28;20515;-76
2022/06/29 09:16:54;;;;;;;163.40;150.70;;;22.60;78.70;;;;;;5053642;28;20122;-75
2022/06/29 09:19:22;;;;;;;170.40;157.20;;;22.70;79.60;;;;;;5053337;28;20128;-76
2022/06/29 09:21:50;;;;;;;172.75;159.75;;;22.80;79.30;;;;;;5054098;28;20225;-75
2022/06/29 09:24:18;;;;;;;176.18;163.10;;;22.80;80.00;;;;;;5072206;28;20107;-73
2022/06/29 09:26:50;;;;;;;170.82;158.13;;;22.90;79.80;;;;;;5053349;28;20053;-77
2022/06/29 09:29:21;;;;;;;177.30;164.00;;;23.00;79.80;;;;;;5068850;28;20057;-77
2022/06/29 09:32:10;;;;;;;168.80;156.25;;;23.10;79.20;;;;;;5053058;28;20507;-75
2022/06/29 09:34:39;;;;;;;169.25;156.52;;;23.10;78.40;;;;;;5066917;28;20055;-76
2022/06/29 09:37:08;;;;;;;178.45;165.20;;;23.20;77.80;;;;;;5068020;28;20450;-76
2022/06/29 09:39:36;;;;;;;175.52;162.63;;;23.30;77.60;;;;;;5051056;28;20045;-76
2022/06/29 09:42:04;;;;;;;178.20;165.05;;;23.30;76.90;;;;;;5069440;28;20059;-75
2022/06/29 09:44:31;;;;;;;175.50;162.57;;;23.40;76.80;;;;;;5051571;28;20045;-76
2022/06/29 09:46:59;;;;;;;175.70;162.82;;;23.50;77.20;;;;;;5069948;28;20582;-75
2022/06/29 09:49:29;;;;;;;180.18;167.07;;;23.50;76.90;;;;;;5067133;28;20053;-75
2022/06/29 09:51:57;;;;;;;177.38;164.40;;;23.70;75.90;;;;;;5069271;28;20618;-76
2022/06/29 09:54:26;;;;;;;176.75;163.95;;;23.80;74.10;;;;;;5052755;28;20136;-75
2022/06/29 09:56:57;;;;;;;189.48;158.40;;;23.90;75.00;;;;;;5052704;28;20049;-76
2022/06/29 10:05:00;;;;;;;175.18;162.55;;;24.10;74.70;;;;;;5071317;28;20049;-75
2022/06/29 10:07:29;;;;;;;187.18;172.43;;;24.20;74.50;;;;;;5035937;28;20509;-74
2022/06/29 10:09:56;;;;;;;174.40;161.73;;;24.30;74.80;;;;;;5041462;28;20111;-74
2022/06/29 10:15:31;;;;;;;177.82;164.10;;;24.40;74.70;;;;;;5017601;28;20060;-76
2022/06/29 10:18:10;;;;;;;177.43;164.80;;;24.40;74.10;;;;;;5049679;28;20052;-74
2022/06/29 10:20:45;;;;;;;185.40;172.27;;;24.50;74.70;;;;;;5061246;28;20128;-74
2022/06/29 10:23:43;;;;;;;183.35;169.73;;;24.60;74.30;;;;;;5042283;28;20042;-74
2022/06/29 10:26:45;;;;;;;177.38;164.18;;;24.60;73.70;;;;;;5049818;28;20132;-75
2022/06/29 10:29:29;;;;;;;181.00;168.23;;;24.70;74.60;;;;;;5052841;28;20138;-76
2022/06/29 10:32:07;;;;;;;179.02;163.63;;;24.80;72.60;;;;;;5071431;28;20060;-76
2022/06/29 10:34:41;;;;;;;169.20;157.10;;;24.90;72.50;;;;;;5056057;28;20077;-76
2022/06/29 10:37:11;;;;;;;180.60;167.52;;;25.00;71.90;;;;;;5055409;28;20053;-75
2022/06/29 10:39:58;;;;;;;182.02;169.25;;;25.10;72.90;;;;;;5072368;28;20130;-77
2022/06/29 10:45:20;;;;;;;187.05;173.32;;;25.30;72.50;;;;;;5074848;28;20053;-79
2022/06/29 10:48:20;;;;;;;189.00;175.93;;;25.30;73.80;;;;;;5055738;28;20169;-79
2022/06/29 10:50:47;;;;;;;181.93;168.95;;;25.50;74.50;;;;;;5065991;28;20044;-82
2022/06/29 10:53:19;;;;;;;197.10;181.85;;;25.50;74.20;;;;;;5052597;28;20110;-78
2022/06/29 10:55:48;;;;;;;184.85;172.18;;;25.60;73.40;;;;;;5054720;28;20490;-76
2022/06/29 10:58:16;;;;;;;194.00;180.20;;;25.70;72.40;;;;;;5073164;28;20081;-75
2022/06/29 11:00:45;;;;;;;197.70;183.60;;;25.80;72.90;;;;;;5054584;28;20159;-82
2022/06/29 11:03:19;;;;;;;193.65;180.27;;;25.90;71.10;;;;;;5038052;28;20507;-76
2022/06/29 11:14:04;;;;;;;190.95;177.85;;;26.20;67.70;;;;;;5055367;28;20460;-82
2022/06/29 11:16:33;;;;;;;191.32;172.05;;;26.30;67.80;;;;;;5055713;28;20060;-83
2022/06/29 11:19:06;;;;;;;186.38;172.85;;;26.30;66.50;;;;;;5038347;28;20056;-83
2022/06/29 11:21:33;;;;;;;184.82;171.90;;;26.40;66.70;;;;;;5036766;28;20056;-83
2022/06/29 11:24:04;;;;;;;191.18;178.00;;;26.40;66.60;;;;;;5054950;28;20049;-85
2022/06/29 11:26:35;;;;;;;184.60;169.43;;;26.40;66.80;;;;;;5051429;28;20053;-89
2022/06/29 11:29:03;;;;;;;176.13;163.63;;;26.40;66.90;;;;;;5052620;28;20056;-88
2022/06/29 11:31:30;;;;;;;183.02;170.18;;;26.30;66.70;;;;;;5037885;28;20510;-87
2022/06/29 11:33:58;;;;;;;183.85;170.95;;;26.30;66.90;;;;;;5053251;28;20057;-86
2022/06/29 11:36:29;;;;;;;177.65;164.90;;;26.30;66.90;;;;;;5047487;28;20048;-86
2022/06/29 11:38:58;;;;;;;180.43;167.50;;;26.30;67.10;;;;;;5051131;28;20488;-85
2022/06/29 11:43:03;;;;;;;178.35;165.88;;;26.30;67.00;;;;;;5052869;28;20072;-88
2022/06/29 11:44:24;;;;;;;183.50;168.80;;;26.30;67.50;;;;;;5033902;28;20052;-83
2022/06/29 11:46:52;;;;;;;179.85;167.32;;;26.30;67.20;;;;;;5033500;28;20059;-83
2022/06/29 11:49:36;;;;;;;187.98;175.13;;;26.30;67.10;;;;;;5037824;28;20049;-83
2022/06/29 11:52:08;;;;;;;189.60;176.40;;;26.30;67.80;;;;;;5034103;28;20045;-84
2022/06/29 11:54:37;;;;;;;198.50;183.38;;;26.30;67.50;;;;;;5054886;28;20140;-81
2022/06/29 11:57:10;;;;;;;213.68;199.13;;;26.30;66.40;;;;;;5052577;28;20083;-82
2022/06/29 11:59:39;;;;;;;200.57;186.18;;;26.40;65.90;;;;;;5050929;28;20072;-85
2022/06/29 12:02:07;;;;;;;202.23;188.55;;;26.40;65.80;;;;;;5052555;28;20041;-81
2022/06/29 12:04:37;;;;;;;197.15;184.07;;;26.40;65.40;;;;;;5071044;28;20103;-80
2022/06/29 12:07:07;;;;;;;202.48;188.10;;;26.50;65.80;;;;;;5070254;28;20569;-80
2022/06/29 12:09:34;;;;;;;202.18;188.57;;;26.50;65.80;;;;;;5052353;28;20041;-78
2022/06/29 12:12:02;;;;;;;200.88;187.20;;;26.50;65.50;;;;;;5053753;28;20077;-77
2022/06/29 12:14:29;;;;;;;203.02;189.63;;;26.60;66.70;;;;;;5068192;28;20049;-80
2022/06/29 12:16:56;;;;;;;204.95;191.48;;;26.70;66.00;;;;;;5054379;28;20547;-81
2022/06/29 12:19:24;;;;;;;193.88;180.98;;;26.70;66.40;;;;;;5054223;28;20060;-79
2022/06/29 12:21:51;;;;;;;191.88;179.07;;;26.80;67.00;;;;;;5053737;28;20131;-78
2022/06/29 12:24:20;;;;;;;191.45;176.73;;;26.90;67.60;;;;;;5064608;28;20542;-80
2022/06/29 12:26:47;;;;;;;192.30;179.00;;;26.90;68.20;;;;;;5031052;28;20080;-83
2022/06/29 12:29:15;;;;;;;188.50;175.32;;;27.00;67.10;;;;;;5052854;28;20060;-83
2022/06/29 12:31:42;;;;;;;199.63;186.63;;;27.10;66.10;;;;;;5037966;28;20041;-81
2022/06/29 12:34:10;;;;;;;205.80;192.52;;;27.10;66.70;;;;;;5037331;28;20052;-86
2022/06/29 12:36:37;;;;;;;206.88;193.38;;;27.20;66.70;;;;;;5034969;28;20054;-82
2022/06/29 12:39:06;;;;;;;203.88;190.48;;;27.20;66.30;;;;;;5035288;28;20527;-84
2022/06/29 12:41:35;;;;;;;201.63;186.40;;;27.20;65.00;;;;;;5037443;28;20055;-83
2022/06/29 12:44:03;;;;;;;202.00;188.30;;;27.20;64.40;;;;;;5037346;28;20056;-74
2022/06/29 12:46:30;;;;;;;200.23;186.93;;;27.30;65.50;;;;;;5070967;28;20518;-75